USRR

Details ICAO USRR (SGC)
Name SURGUT
Region Russia
Timezone Asia/Yekaterinburg (UTC+5.0)
Plans Departing 97
Arriving 89
Stats Elevation 200 ft / 61 m (AMSL)
Location 61.343693° 73.401842°
Runways 1
Magnetic Variation 17.121° E
Sunrise 2018-05-24 21:56:48 UTC / 2018-05-25 02:56:48 Local
Sunset 2018-05-25 16:12:41 UTC / 2018-05-25 21:12:41 Local
Advertisement - Login to hide

Runways

ID Width Length Bearing (true) Bearing (mag) Surface Threshold Offset Overrun Length
07 148 ft / 45 m 9,112 ft / 2,778 m 89.72° 72.60° Asphalt 0 ft / 0 m 165 ft / 50 m
25 148 ft / 45 m 9,112 ft / 2,778 m 269.76° 252.64° Asphalt 0 ft / 0 m 165 ft / 50 m

Map

Weather


0- 5 10 15 20 25 30 35+ Temperature / ° C

Clouds and Precipitation
Forecast for 2018-05-25 12:00 UTC. Updated 4 hours ago

Ground ~20,000 ft ~40,000 ft Winds

METAR

USRR 251530Z 02003MPS CAVOK 02/M06 Q1015 R25/CLRD60 NOSIG RMK QFE756

TAF

TAF TAF USRR 251355Z 2515/2615 36003MPS 9999 SCT020

Frequencies

Recorded 124.80 MHz ATIS
Tower 120.80 MHz START
Ground 121.80 MHz TAXIING
Approach 120.30 MHz KRUG
Warning: Do not use this data for real-world aviation or navigation. No guarantee of current accuracy is given.